Pearisburg, Virginia
Current Conditions -  °F | °C
As of 10:15 AM on Thursday 18 Dec 2014 (Local Time) from KPSK Reporting Station
Scattered Clouds Scattered Clouds  
Wind Chill: 27°   Ceiling: Unl
Heat Index: 32°   Visibility: 10mi
Dew Point: 25°   Wind: 6mph
Humidity: 75%   Direction: 270°W
Pressure: 30.19"   Gusts: NA
Location:  37.33°N, 80.74°W
Report Text: KPSK 181515Z AUTO 27005KT 10SM SCT120 00/M04 A3019 RMK AO2 T00021038
Loading
Personal Weather Stations






























Interactive Weather Map New forecast layout! Learn more

10-Day Weather Forecast

Advertisements
Track Severe Weather on mobile